الصفحة الرئيسية
METAR-TAF:

METAR-TAF

مطار :

Phillip Goldston

Belize City, بليز

دائرة عرض: 17-32N, خط طول: 088-18W, ارتفاع: 5 متر

مراقبة الطقس الحالي

تاريخ ووقت الإصدار 39 دقيقة قبل الساعة 11:00UTC
ريح 3 عقدة من الشمال/الشمال الغربي
درجة الحرارة 24°درجة مئوية
الرطوبة 94%
ضغط 1016 hPa
الرؤية 10 كم أو أكثر
غيوم مفككة على ارتفاع 2000 قدم

METAR: MZBZ 121100Z 34003KT 9999 BKN020 24/23 A3001 Q1016 NOSIG

زمن: 05:39 (11:39 UTC)

توقعات

تاريخ ووقت الإصدار 2ساعات و 39 دقيقة قبل الساعة 09:00UTC
التوقعات صالحة من12 الساعة 12 UTC إلى 13 الساعة 12 UTC
ريح 10 عقدة من الشمال الشرقي
الرؤية 10 كم أو أكثر
غيوم متفرقة على ارتفاع 2300 قدم
نظرية الاحتمالات 30% :
مؤقت
من 12 الساعة 12 UTC إلى 12 الساعة 18 UTC
الرؤية: 5000 متر
غيوم مفككة على ارتفاع 1500 قدم
زخات من المطر

TAF: MZBZ 120900Z 1212/1312 05010KT 9999 SCT023 PROB30 TEMPO 1212/1218 5000 SHRA BKN015

أرصاد الطقس والتوقعات من أكثر من 4000 مطار (تقارير الطقس للمطار METAR والتنبؤ بالطقس بالمطارTAF).

المحطات المتاحة هي النقط الصفراء والحمراء على الخريطة.

حرك المؤشر فوق النقطة لمعرفة اسم المحطة.

ثم انقر لمعرفة أرصاد وتوقعات الطقس.

لتغيير الخارطة: اضغط على الأزرار الخضراء مع رمز الصليب الأسود للتكبير. على الزر الأخضر مع شرطة للتصغير، أو على الأسهم الخضراء للخرائط المجاورة.


METAR-TAF: